createdAt,value
2018-03-25T00:00:55.555Z,3.15
2018-03-25T00:03:24.069Z,3.18
2018-03-25T00:05:52.631Z,3.23
2018-03-25T00:08:21.162Z,3.19
2018-03-25T00:10:49.590Z,3.18
2018-03-25T00:13:18.453Z,3.25
2018-03-25T00:15:46.942Z,3.23
2018-03-25T00:18:16.327Z,3.23
2018-03-25T00:20:46.988Z,3.19
2018-03-25T00:23:15.437Z,3.02
2018-03-25T00:25:45.939Z,2.86
2018-03-25T00:28:14.358Z,2.72
2018-03-25T00:30:48.620Z,2.68
2018-03-25T00:33:18.641Z,2.61
2018-03-25T00:35:47.155Z,2.46
2018-03-25T00:38:17.315Z,2.38
2018-03-25T00:40:47.748Z,2.29
2018-03-25T00:43:16.197Z,2.07
2018-03-25T00:45:44.686Z,2.08
2018-03-25T00:48:14.613Z,2.07
2018-03-25T00:50:43.081Z,2.05
2018-03-25T00:53:11.518Z,2.07
2018-03-25T00:55:40.470Z,2.13
2018-03-25T00:58:11.084Z,2.15
2018-03-25T01:00:39.625Z,2.09
2018-03-25T01:03:09.385Z,2.04
2018-03-25T01:05:37.832Z,2.02
2018-03-25T01:08:06.347Z,2.02
2018-03-25T01:10:34.857Z,1.97
2018-03-25T01:13:04.933Z,1.99
2018-03-25T01:15:43.677Z,1.98
2018-03-25T01:18:12.106Z,1.98
2018-03-25T01:20:40.625Z,1.94
2018-03-25T01:23:09.096Z,1.90
2018-03-25T01:25:37.581Z,1.94
2018-03-25T01:28:06.016Z,2.11
2018-03-25T01:30:34.492Z,2.13
2018-03-25T01:33:02.972Z,2.10
2018-03-25T01:35:33.079Z,2.23
2018-03-25T01:38:03.498Z,2.01
2018-03-25T01:40:34.061Z,1.91
2018-03-25T01:43:02.485Z,1.82
2018-03-25T01:45:30.991Z,1.93
2018-03-25T01:47:59.431Z,2.00
2018-03-25T01:50:27.939Z,2.04
2018-03-25T01:52:56.454Z,1.98
2018-03-25T01:55:24.972Z,1.97
2018-03-25T01:57:54.884Z,2.24
2018-03-25T02:00:23.333Z,2.27
2018-03-25T02:02:51.813Z,2.07
2018-03-25T02:05:20.326Z,2.13
2018-03-25T02:07:50.409Z,2.07
2018-03-25T02:10:21.098Z,2.03
2018-03-25T02:12:51.594Z,1.82
2018-03-25T02:15:20.061Z,1.86
2018-03-25T02:17:48.515Z,1.65
2018-03-25T02:20:18.423Z,1.49
2018-03-25T02:22:53.149Z,1.47
2018-03-25T02:25:21.652Z,1.45
2018-03-25T02:27:50.686Z,1.64
2018-03-25T02:30:19.158Z,1.94
2018-03-25T02:32:48.537Z,1.86
2018-03-25T02:35:19.241Z,1.66
2018-03-25T02:37:47.693Z,1.53
2018-03-25T02:40:16.867Z,1.50
2018-03-25T02:42:45.371Z,1.69
2018-03-25T02:45:15.892Z,1.75
2018-03-25T02:47:44.326Z,1.66
2018-03-25T02:50:14.861Z,1.51
2018-03-25T02:52:43.291Z,1.42
2018-03-25T02:55:12.063Z,1.37
2018-03-25T02:57:42.599Z,1.10
2018-03-25T03:00:11.069Z,1.08
2018-03-25T03:02:39.531Z,1.01
2018-03-25T03:05:13.374Z,1.02
2018-03-25T03:07:43.469Z,1.04
2018-03-25T03:10:14.358Z,1.02
2018-03-25T03:12:42.798Z,1.03
2018-03-25T03:15:13.290Z,1.26
2018-03-25T03:17:41.752Z,1.39
2018-03-25T03:20:10.225Z,1.56
2018-03-25T03:22:38.686Z,1.53
2018-03-25T03:25:07.161Z,1.41
2018-03-25T03:27:37.723Z,1.33
2018-03-25T03:30:06.185Z,1.20
2018-03-25T03:32:34.630Z,1.06
2018-03-25T03:35:03.083Z,0.82
2018-03-25T03:37:33.586Z,0.81
2018-03-25T03:40:02.020Z,0.78
2018-03-25T03:42:30.450Z,0.80
2018-03-25T03:44:58.878Z,0.83
2018-03-25T03:47:27.317Z,1.00
2018-03-25T03:49:57.340Z,0.94
2018-03-25T03:52:25.850Z,1.13
2018-03-25T03:54:55.861Z,0.92
2018-03-25T03:57:24.297Z,0.87
2018-03-25T03:59:54.413Z,0.83
2018-03-25T04:02:23.078Z,0.83
2018-03-25T04:04:51.490Z,0.80
2018-03-25T04:07:19.961Z,0.77
2018-03-25T04:09:51.986Z,0.74
2018-03-25T04:12:20.420Z,0.73
2018-03-25T04:14:48.845Z,1.07
2018-03-25T04:17:17.362Z,1.26
2018-03-25T04:19:45.777Z,1.23
2018-03-25T04:22:14.196Z,1.14
2018-03-25T04:24:42.617Z,1.16
2018-03-25T04:27:13.174Z,1.14
2018-03-25T04:29:41.529Z,1.11
2018-03-25T04:32:12.105Z,1.09
2018-03-25T04:34:40.525Z,1.08
2018-03-25T04:37:09.708Z,0.95
2018-03-25T04:39:40.204Z,0.77
2018-03-25T04:42:10.592Z,0.65
2018-03-25T04:44:38.999Z,0.61
2018-03-25T04:47:07.461Z,0.65
2018-03-25T04:49:38.034Z,0.62
2018-03-25T04:52:06.411Z,0.60
2018-03-25T04:54:34.849Z,0.55
2018-03-25T04:57:03.292Z,0.49
2018-03-25T04:59:33.230Z,0.50
2018-03-25T05:02:01.673Z,0.46
2018-03-25T05:04:30.109Z,0.47
2018-03-25T05:06:58.541Z,0.51
2018-03-25T05:09:26.984Z,0.56
2018-03-25T05:11:55.391Z,0.54
2018-03-25T05:14:23.850Z,0.65
2018-03-25T05:16:52.286Z,0.56
2018-03-25T05:19:22.425Z,0.52
2018-03-25T05:21:50.857Z,0.52
2018-03-25T05:24:19.299Z,0.48
2018-03-25T05:26:47.711Z,0.57
2018-03-25T05:29:16.125Z,0.54
2018-03-25T05:31:44.529Z,0.50
2018-03-25T05:34:12.960Z,0.48
2018-03-25T05:36:41.381Z,0.54
2018-03-25T05:39:09.801Z,0.55
2018-03-25T05:41:38.480Z,0.56
2018-03-25T05:44:08.638Z,0.56
2018-03-25T05:46:37.048Z,0.57
2018-03-25T05:49:05.529Z,0.74
2018-03-25T05:51:37.329Z,1.15
2018-03-25T05:54:07.518Z,1.28
2018-03-25T05:56:35.969Z,1.28
2018-03-25T05:59:04.401Z,1.53
2018-03-25T06:01:36.997Z,1.74
2018-03-25T06:04:05.674Z,1.83
2018-03-25T06:06:34.105Z,1.87
2018-03-25T06:09:04.101Z,2.16
2018-03-25T06:11:32.546Z,2.30
2018-03-25T06:14:01.239Z,2.48
2018-03-25T06:16:29.680Z,2.68
2018-03-25T06:18:58.142Z,3.01
2018-03-25T06:21:26.620Z,3.25
2018-03-25T06:23:55.094Z,3.42
2018-03-25T06:26:23.506Z,3.35
2018-03-25T06:28:53.511Z,3.37
2018-03-25T06:31:23.363Z,3.25
2018-03-25T06:33:55.106Z,3.09
2018-03-25T06:36:24.777Z,3.05
2018-03-25T06:38:53.226Z,2.90
2018-03-25T06:41:21.672Z,2.80
2018-03-25T06:43:50.121Z,2.80
2018-03-25T06:46:20.068Z,2.78
2018-03-25T06:48:48.489Z,2.80
2018-03-25T06:51:17.697Z,2.86
2018-03-25T06:53:46.175Z,2.89
2018-03-25T06:56:14.613Z,2.93
2018-03-25T06:58:43.933Z,2.96
2018-03-25T07:01:13.640Z,3.02
2018-03-25T07:03:42.120Z,3.19
2018-03-25T07:06:10.572Z,3.30
2018-03-25T07:08:40.441Z,3.54
2018-03-25T07:11:10.237Z,3.94
2018-03-25T07:13:38.791Z,4.64
2018-03-25T07:16:07.248Z,5.29
2018-03-25T07:18:36.529Z,5.47
2018-03-25T07:21:05.697Z,5.77
2018-03-25T07:23:35.536Z,5.93
2018-03-25T07:26:03.974Z,5.86
2018-03-25T07:28:32.408Z,5.98
2018-03-25T07:31:02.127Z,5.95
2018-03-25T07:33:31.771Z,6.21
2018-03-25T07:36:00.233Z,6.32
2018-03-25T07:38:28.689Z,6.31
2018-03-25T07:40:58.598Z,6.78
2018-03-25T07:43:27.051Z,7.06
2018-03-25T07:45:55.533Z,7.46
2018-03-25T07:48:25.005Z,7.95
2018-03-25T07:50:54.493Z,8.75
2018-03-25T07:53:22.918Z,9.76
2018-03-25T07:55:51.366Z,10.77
2018-03-25T07:58:19.756Z,11.75
2018-03-25T08:00:48.331Z,11.89
2018-03-25T08:03:16.779Z,12.24
2018-03-25T08:05:45.219Z,12.00
2018-03-25T08:08:15.898Z,11.40
2018-03-25T08:10:44.295Z,11.51
2018-03-25T08:13:12.745Z,11.28
2018-03-25T08:15:41.196Z,11.17
2018-03-25T08:18:10.985Z,12.42
2018-03-25T08:20:39.435Z,13.19
2018-03-25T08:23:07.872Z,14.79
2018-03-25T08:25:36.373Z,15.32
2018-03-25T08:28:05.830Z,15.58
2018-03-25T08:30:34.323Z,15.47
2018-03-25T08:33:04.701Z,15.34
2018-03-25T08:35:33.170Z,15.40
2018-03-25T08:38:01.598Z,16.22
2018-03-25T08:40:31.780Z,16.44
2018-03-25T08:43:00.202Z,16.71
2018-03-25T08:45:28.672Z,16.87
2018-03-25T08:47:58.556Z,17.22
2018-03-25T08:50:27.076Z,18.26
2018-03-25T08:52:55.501Z,17.93
2018-03-25T08:55:23.989Z,18.26
2018-03-25T08:57:52.450Z,18.46
2018-03-25T09:00:19.856Z,19.77
2018-03-25T09:02:49.782Z,20.51
2018-03-25T09:05:17.143Z,20.84
2018-03-25T09:07:46.836Z,21.31
2018-03-25T09:10:14.204Z,22.12
2018-03-25T09:12:43.684Z,22.62
2018-03-25T09:15:11.034Z,23.29
2018-03-25T09:17:40.491Z,23.66
2018-03-25T09:20:07.875Z,24.29
2018-03-25T09:22:37.392Z,24.22
2018-03-25T09:25:04.854Z,24.79
2018-03-25T09:27:33.286Z,24.53
2018-03-25T09:30:00.616Z,25.12
2018-03-25T09:32:29.007Z,24.21
2018-03-25T09:34:57.423Z,23.14
2018-03-25T09:37:24.874Z,22.64
2018-03-25T09:39:53.613Z,22.19
2018-03-25T09:42:23.105Z,22.42
2018-03-25T09:44:51.544Z,23.63
2018-03-25T09:47:20.988Z,23.70
2018-03-25T09:49:49.415Z,23.92
2018-03-25T09:52:16.775Z,23.64
2018-03-25T09:54:46.334Z,23.61
2018-03-25T09:57:14.942Z,23.69
2018-03-25T09:59:44.492Z,24.35
2018-03-25T10:02:18.106Z,24.67
2018-03-25T10:04:45.722Z,24.91
2018-03-25T10:07:14.121Z,24.69
2018-03-25T10:09:42.557Z,25.00
2018-03-25T10:12:09.883Z,25.05
2018-03-25T10:14:39.577Z,24.57
2018-03-25T10:17:09.380Z,24.39
2018-03-25T10:19:38.834Z,23.71
2018-03-25T10:22:08.238Z,24.69
2018-03-25T10:24:37.009Z,24.93
2018-03-25T10:27:04.404Z,24.63
2018-03-25T10:29:33.822Z,24.83
2018-03-25T10:32:02.289Z,25.04
2018-03-25T10:34:30.710Z,25.26
2018-03-25T10:36:59.210Z,24.95
2018-03-25T10:39:27.675Z,25.05
2018-03-25T10:41:55.008Z,24.89
2018-03-25T10:44:24.758Z,24.24
2018-03-25T10:46:54.269Z,23.37
2018-03-25T10:49:22.658Z,23.47
2018-03-25T10:51:51.169Z,23.54
2018-03-25T10:54:19.614Z,24.21
2018-03-25T10:56:47.010Z,24.69
2018-03-25T10:59:15.417Z,24.47
2018-03-25T11:01:43.866Z,24.37
2018-03-25T11:04:12.294Z,23.95
2018-03-25T11:06:40.744Z,23.72
2018-03-25T11:09:09.169Z,22.91
2018-03-25T11:11:38.914Z,23.16
2018-03-25T11:14:07.310Z,20.63
2018-03-25T11:16:35.744Z,20.95
2018-03-25T11:19:05.207Z,20.82
2018-03-25T11:21:34.651Z,20.38
2018-03-25T11:24:03.132Z,19.86
2018-03-25T11:26:31.587Z,19.92
2018-03-25T11:29:00.022Z,19.48
2018-03-25T11:31:28.435Z,19.21
2018-03-25T11:33:58.222Z,18.81
2018-03-25T11:36:27.633Z,18.58
2018-03-25T11:38:56.149Z,18.50
2018-03-25T11:41:25.594Z,18.57
2018-03-25T11:43:53.984Z,18.10
2018-03-25T11:46:23.437Z,17.88
2018-03-25T11:48:51.887Z,17.84
2018-03-25T11:51:20.405Z,17.61
2018-03-25T11:53:48.924Z,18.00
2018-03-25T11:56:18.424Z,18.02
2018-03-25T11:58:46.813Z,17.56
2018-03-25T12:01:15.293Z,17.42
2018-03-25T12:03:43.746Z,17.52
2018-03-25T12:06:14.731Z,17.48
2018-03-25T12:08:43.199Z,17.38
2018-03-25T12:11:11.715Z,17.60
2018-03-25T12:13:41.090Z,17.17
2018-03-25T12:16:09.534Z,17.32
2018-03-25T12:18:39.231Z,17.24
2018-03-25T12:21:07.669Z,17.42
2018-03-25T12:23:37.129Z,17.08
2018-03-25T12:26:05.561Z,17.19
2018-03-25T12:28:35.402Z,17.25
2018-03-25T12:31:03.852Z,17.04
2018-03-25T12:33:33.315Z,17.15
2018-03-25T12:36:02.172Z,17.21
2018-03-25T12:38:30.805Z,17.34
2018-03-25T12:40:59.310Z,17.18
2018-03-25T12:43:27.745Z,16.53
2018-03-25T12:45:56.166Z,16.57
2018-03-25T12:48:25.010Z,16.12
2018-03-25T12:50:54.511Z,16.05
2018-03-25T12:53:22.991Z,15.50
2018-03-25T12:55:52.418Z,15.67
2018-03-25T12:58:20.886Z,15.69
2018-03-25T13:00:50.408Z,15.93
2018-03-25T13:03:18.894Z,15.98
2018-03-25T13:05:47.275Z,15.52
2018-03-25T13:08:15.717Z,15.54
2018-03-25T13:10:45.443Z,15.39
2018-03-25T13:13:13.903Z,15.38
2018-03-25T13:15:42.364Z,15.42
2018-03-25T13:18:12.068Z,15.50
2018-03-25T13:20:40.599Z,15.39
2018-03-25T13:23:09.041Z,15.25
2018-03-25T13:25:37.533Z,15.16
2018-03-25T13:28:07.336Z,15.16
2018-03-25T13:30:38.545Z,14.91
2018-03-25T13:33:07.070Z,14.89
2018-03-25T13:35:35.510Z,14.74
2018-03-25T13:38:03.957Z,14.92
2018-03-25T13:40:33.246Z,15.06
2018-03-25T13:43:01.690Z,15.08
2018-03-25T13:45:31.650Z,15.17
2018-03-25T13:48:02.544Z,15.02
2018-03-25T13:50:31.030Z,14.72
2018-03-25T13:52:59.485Z,14.55
2018-03-25T13:55:27.954Z,14.59
2018-03-25T13:57:58.089Z,14.55
2018-03-25T14:00:27.847Z,14.61
2018-03-25T14:02:57.589Z,14.67
2018-03-25T14:05:25.960Z,14.88
2018-03-25T14:07:55.630Z,14.68
2018-03-25T14:10:25.438Z,14.35
2018-03-25T14:12:53.869Z,14.35
2018-03-25T14:15:22.589Z,14.35
2018-03-25T14:17:51.032Z,14.41
2018-03-25T14:20:20.137Z,14.25
2018-03-25T14:22:48.617Z,14.30
2018-03-25T14:25:17.065Z,14.21
2018-03-25T14:27:45.493Z,14.07
2018-03-25T14:30:13.878Z,14.31
2018-03-25T14:32:43.418Z,14.28
2018-03-25T14:35:11.828Z,14.15
2018-03-25T14:37:41.337Z,13.92
2018-03-25T14:40:09.726Z,13.90
2018-03-25T14:42:38.899Z,13.87
2018-03-25T14:45:07.342Z,13.65
2018-03-25T14:47:35.883Z,13.89
2018-03-25T14:50:04.297Z,13.87
2018-03-25T14:52:32.757Z,13.74
2018-03-25T14:55:01.222Z,13.72
2018-03-25T14:57:30.745Z,13.68
2018-03-25T14:59:59.247Z,13.83
2018-03-25T15:02:27.718Z,13.77
2018-03-25T15:04:57.176Z,13.61
2018-03-25T15:07:25.629Z,13.65
2018-03-25T15:09:54.138Z,13.38
2018-03-25T15:12:24.808Z,13.40
2018-03-25T15:14:53.261Z,13.36
2018-03-25T15:17:21.746Z,13.17
2018-03-25T15:19:51.473Z,13.19
2018-03-25T15:22:19.946Z,13.16
2018-03-25T15:24:48.426Z,13.28
2018-03-25T15:27:16.869Z,13.10
2018-03-25T15:29:45.302Z,13.17
2018-03-25T15:32:13.851Z,13.20
2018-03-25T15:34:42.325Z,12.98
2018-03-25T15:37:12.072Z,13.00
2018-03-25T15:39:41.528Z,12.84
2018-03-25T15:42:11.014Z,12.92
2018-03-25T15:44:39.490Z,12.84
2018-03-25T15:47:07.980Z,12.77
2018-03-25T15:49:37.355Z,12.73
2018-03-25T15:52:05.892Z,12.67
2018-03-25T15:54:34.349Z,12.49
2018-03-25T15:57:03.789Z,12.58
2018-03-25T15:59:32.279Z,12.60
2018-03-25T16:02:01.978Z,12.49
2018-03-25T16:04:30.477Z,12.33
2018-03-25T16:06:58.956Z,12.41
2018-03-25T16:09:27.402Z,12.42
2018-03-25T16:11:56.148Z,12.20
2018-03-25T16:14:24.596Z,12.17
2018-03-25T16:16:52.987Z,12.20
2018-03-25T16:19:21.499Z,12.16
2018-03-25T16:21:49.960Z,12.09
2018-03-25T16:24:18.427Z,12.08
2018-03-25T16:26:46.880Z,12.03
2018-03-25T16:29:15.313Z,12.08
2018-03-25T16:31:43.755Z,12.00
2018-03-25T16:34:12.281Z,11.83
2018-03-25T16:36:40.735Z,11.71
2018-03-25T16:39:09.185Z,11.63
2018-03-25T16:41:37.682Z,11.65
2018-03-25T16:44:06.137Z,11.60
2018-03-25T16:46:35.966Z,11.71
2018-03-25T16:49:04.481Z,11.70
2018-03-25T16:51:34.389Z,11.61
2018-03-25T16:54:03.532Z,11.49
2018-03-25T16:56:33.557Z,11.36
2018-03-25T16:59:02.005Z,11.41
2018-03-25T17:01:30.480Z,11.35
2018-03-25T17:04:00.427Z,11.37
2018-03-25T17:06:28.915Z,11.22
2018-03-25T17:08:57.374Z,11.26
2018-03-25T17:11:25.867Z,11.30
2018-03-25T17:13:54.391Z,11.11
2018-03-25T17:16:22.895Z,11.02
2018-03-25T17:18:51.354Z,11.00
2018-03-25T17:21:19.818Z,10.96
2018-03-25T17:23:48.300Z,10.89
2018-03-25T17:26:16.811Z,10.67
2018-03-25T17:28:45.272Z,10.64
2018-03-25T17:31:15.238Z,10.67
2018-03-25T17:33:45.378Z,10.68
2018-03-25T17:36:13.838Z,10.70
2018-03-25T17:38:42.363Z,10.52
2018-03-25T17:41:12.455Z,10.48
2018-03-25T17:43:40.928Z,10.43
2018-03-25T17:46:09.410Z,10.27
2018-03-25T17:48:37.909Z,10.30
2018-03-25T17:51:06.442Z,10.34
2018-03-25T17:53:39.026Z,10.25
2018-03-25T17:56:07.518Z,10.18
2018-03-25T17:58:37.595Z,9.99
2018-03-25T18:01:06.091Z,9.88
2018-03-25T18:03:34.582Z,9.85
2018-03-25T18:06:03.068Z,9.80
2018-03-25T18:08:31.568Z,9.73
2018-03-25T18:11:00.056Z,9.56
2018-03-25T18:13:30.088Z,9.56
2018-03-25T18:16:00.095Z,9.53
2018-03-25T18:18:30.589Z,9.29
2018-03-25T18:20:59.026Z,9.21
2018-03-25T18:23:27.546Z,9.17
2018-03-25T18:25:57.973Z,9.20
2018-03-25T18:28:28.716Z,9.05
2018-03-25T18:31:00.846Z,8.88
2018-03-25T18:33:29.402Z,8.77
2018-03-25T18:35:59.351Z,8.81
2018-03-25T18:38:27.827Z,8.58
2018-03-25T18:40:56.234Z,8.44
2018-03-25T18:43:26.725Z,8.40
2018-03-25T18:45:55.419Z,8.41
2018-03-25T18:48:23.881Z,8.40
2018-03-25T18:50:53.873Z,8.40
2018-03-25T18:53:22.568Z,8.33
2018-03-25T18:55:50.999Z,8.38
2018-03-25T18:58:19.538Z,8.16
2018-03-25T19:00:48.117Z,7.95
2018-03-25T19:03:19.175Z,8.03
2018-03-25T19:05:49.187Z,7.89
2018-03-25T19:08:19.711Z,7.77
2018-03-25T19:10:48.176Z,7.78
2018-03-25T19:13:16.665Z,7.74
2018-03-25T19:15:45.144Z,7.90
2018-03-25T19:18:13.613Z,7.91
2018-03-25T19:20:42.062Z,7.65
2018-03-25T19:23:12.656Z,7.52
2018-03-25T19:25:42.521Z,7.53
2018-03-25T19:28:11.021Z,7.51
2018-03-25T19:30:39.504Z,7.32
2018-03-25T19:33:07.986Z,7.30
2018-03-25T19:35:36.500Z,7.36
2018-03-25T19:38:04.941Z,7.15
2018-03-25T19:40:33.492Z,7.20
2018-03-25T19:43:02.776Z,7.10
2018-03-25T19:45:34.874Z,6.76
2018-03-25T19:48:03.437Z,6.61
2018-03-25T19:50:31.895Z,6.56
2018-03-25T19:53:02.476Z,6.55
2018-03-25T19:55:32.934Z,6.55
2018-03-25T19:58:01.395Z,6.48
2018-03-25T20:00:31.485Z,6.43
2018-03-25T20:03:01.540Z,6.35
2018-03-25T20:05:30.012Z,6.25
2018-03-25T20:07:58.506Z,6.16
2018-03-25T20:10:26.954Z,6.08
2018-03-25T20:12:55.666Z,6.04
2018-03-25T20:15:24.832Z,6.07
2018-03-25T20:17:53.286Z,6.09
2018-03-25T20:20:23.795Z,6.00
2018-03-25T20:22:52.286Z,5.97
2018-03-25T20:25:22.619Z,6.37
2018-03-25T20:27:51.066Z,6.09
2018-03-25T20:30:20.597Z,5.78
2018-03-25T20:32:49.109Z,5.59
2018-03-25T20:35:17.622Z,5.44
2018-03-25T20:37:48.202Z,5.28
2018-03-25T20:40:18.807Z,5.31
2018-03-25T20:42:47.294Z,5.28
2018-03-25T20:45:17.293Z,5.35
2018-03-25T20:47:45.789Z,5.22
2018-03-25T20:50:14.242Z,5.25
2018-03-25T20:52:44.649Z,5.16
2018-03-25T20:55:13.098Z,5.21
2018-03-25T20:57:41.521Z,5.11
2018-03-25T21:00:11.725Z,5.10
2018-03-25T21:02:40.267Z,5.06
2018-03-25T21:05:08.691Z,5.22
2018-03-25T21:07:40.814Z,5.33
2018-03-25T21:10:12.826Z,5.19
2018-03-25T21:12:41.308Z,5.24
2018-03-25T21:15:11.287Z,4.91
2018-03-25T21:17:39.762Z,4.73
2018-03-25T21:20:13.758Z,4.74
2018-03-25T21:22:46.029Z,4.79
2018-03-25T21:25:14.470Z,4.79
2018-03-25T21:27:42.973Z,4.68
2018-03-25T21:30:11.413Z,4.52
2018-03-25T21:32:40.245Z,4.34
2018-03-25T21:35:08.702Z,4.23
2018-03-25T21:37:37.166Z,4.20
2018-03-25T21:40:05.732Z,4.11
2018-03-25T21:42:34.212Z,4.25
2018-03-25T21:45:02.829Z,4.40
2018-03-25T21:47:33.008Z,4.43
2018-03-25T21:50:01.404Z,4.40
2018-03-25T21:52:31.556Z,4.24
2018-03-25T21:55:02.089Z,4.38
2018-03-25T21:57:30.627Z,4.35
2018-03-25T22:00:00.540Z,4.29
2018-03-25T22:02:32.620Z,4.31
2018-03-25T22:05:01.090Z,4.28
2018-03-25T22:07:29.553Z,4.30
2018-03-25T22:09:58.110Z,4.23
2018-03-25T22:12:26.601Z,4.41
2018-03-25T22:14:55.053Z,4.14
2018-03-25T22:17:23.628Z,4.06
2018-03-25T22:19:52.064Z,4.26
2018-03-25T22:22:20.498Z,4.28
2018-03-25T22:24:49.030Z,3.93
2018-03-25T22:27:17.464Z,3.85
2018-03-25T22:29:47.461Z,3.91
2018-03-25T22:32:17.970Z,3.94
2018-03-25T22:34:48.509Z,4.14
2018-03-25T22:37:16.950Z,3.91
2018-03-25T22:39:45.367Z,3.72
2018-03-25T22:42:13.789Z,3.84
2018-03-25T22:44:44.276Z,3.62
2018-03-25T22:47:14.534Z,3.68
2018-03-25T22:49:42.996Z,3.57
2018-03-25T22:52:11.417Z,3.44
2018-03-25T22:54:43.406Z,3.50
2018-03-25T22:57:11.829Z,3.32
2018-03-25T22:59:42.367Z,3.34
2018-03-25T23:02:10.813Z,3.68
2018-03-25T23:04:39.413Z,3.57
2018-03-25T23:07:07.866Z,3.60
2018-03-25T23:09:36.306Z,3.47
2018-03-25T23:12:06.561Z,3.45
2018-03-25T23:14:36.866Z,3.53
2018-03-25T23:17:05.268Z,3.85
2018-03-25T23:19:33.685Z,3.73
2018-03-25T23:22:02.257Z,3.66
2018-03-25T23:24:30.649Z,3.46
2018-03-25T23:26:59.142Z,3.44
2018-03-25T23:29:27.581Z,3.45
2018-03-25T23:31:57.991Z,3.47
2018-03-25T23:34:26.637Z,3.52
2018-03-25T23:36:55.137Z,3.56
2018-03-25T23:39:23.707Z,3.59
2018-03-25T23:41:52.143Z,3.63
2018-03-25T23:44:20.625Z,3.63
2018-03-25T23:46:49.058Z,3.67
2018-03-25T23:49:18.993Z,3.71
2018-03-25T23:51:47.988Z,3.68
2018-03-25T23:54:16.561Z,3.68
2018-03-25T23:56:46.559Z,3.72
2018-03-25T23:59:15.351Z,3.72
